Flight Track Log - Related Links

Times and Time Zones

All times are in EDT time to prevent confusion due to time zone crossing. See the N978AC flight status page for this flight to view local times or setup timezone preferences in your user account.

Time Position Orientation Groundspeed Altitude Reporting Facility
EDT Latitude Longitude Course Direction KTS MPH feet Rate Location/Type
Sat 07:03:35 PM 30.0239 -94.7083 260° West 75 86 1,800  Level Houston Center
Sat 07:04:37 PM 30.0200 -94.7331 260° West 93 107 2,300 462 Climbing Houston Center
Sat 07:05:06 PM 30.0208 -94.7433 275° West 77 89 2,500 484 Climbing Houston Center
Sat 07:05:39 PM 30.0369 -94.7575 323° Northwest 108 124 2,800 387 Climbing Houston Center
Sat 07:06:08 PM 30.0456 -94.7633 330° Northwest 106 122 2,900 358 Climbing Houston Center
Sat 07:06:46 PM 30.0603 -94.7811 314° West 93 107 3,200 387 Climbing Houston Center
Sat 07:07:10 PM 30.0658 -94.7842 335° Northwest 103 119 3,300 393 Climbing Houston Center
Sat 07:07:47 PM 30.0792 -94.8028 310° West 97 112 3,600 484 Climbing Houston Center
Sat 07:08:12 PM 30.0831 -94.8069 317° Northwest 99 114 3,800 590 Climbing Houston Center
Sat 07:08:48 PM 30.0981 -94.8247 314° West 93 107 4,200 492 Climbing Houston Center
Sat 07:09:13 PM 30.1056 -94.8317 321° Northwest 96 110 4,300 327 Climbing Houston Center
Sat 07:09:43 PM 30.1164 -94.8417 321° Northwest 96 110 4,500 387 Climbing Houston Center
Sat 07:10:15 PM 30.1269 -94.8517 321° Northwest 97 112 4,700 393 Climbing Houston Center
Sat 07:10:44 PM 30.1353 -94.8633 310° West 98 113 4,900 290 Climbing Houston Center
Sat 07:11:17 PM 30.1444 -94.8758 310° West 97 112 5,000 197 Climbing Houston Center
Sat 07:11:45 PM 30.1547 -94.8900 310° West 103 119 5,100  Climbing Houston Center
Sat 07:12:19 PM 30.1636 -94.9017 311° West 104 120 5,000  Descending Houston Center
Sat 07:12:47 PM 30.1739 -94.9167 308° West 106 122 5,100 97 Climbing Houston Center
Sat 07:13:21 PM 30.1828 -94.9275 314° West 105 121 5,100 -100 Level Houston Center
Sat 07:13:47 PM 30.1933 -94.9433 308° West 102 117 5,000 -97 Descending Houston Center
Sat 07:14:23 PM 30.2006 -94.9519 314° West 102 117 5,000  Level Houston Center
Sat 07:14:43 PM 30.2081 -94.9656 303° West 102 117 5,000 387 Level Houston Center
Sat 07:15:25 PM 30.2214 -94.9817 314° West 100 115 5,400 493 Climbing Houston Center
Sat 07:15:56 PM 30.2294 -94.9919 312° West 84 97 5,600 387 Climbing Houston Center
Sat 07:16:27 PM 30.2367 -94.9997 317° Northwest 85 98 5,800 436 Climbing Houston Center
Sat 07:16:51 PM 30.2436 -95.0094 310° West 84 97 6,000 393 Climbing Houston Center
Sat 07:17:28 PM 30.2533 -95.0206 315° West 85 98 6,200 358 Climbing Houston Center
Sat 07:17:58 PM 30.2564 -95.0322 287° West 73 84 6,400 290 Climbing Houston Center
Sat 07:18:30 PM 30.2583 -95.0411 284° West 71 82 6,500 218 Climbing Houston Center
Sat 07:18:53 PM 30.2583 -95.0536 270° West 66 76 6,600 290 Climbing Houston Center
Sat 07:19:32 PM 30.2597 -95.0622 281° West 66 76 6,800 295 Climbing Houston Center
Sat 07:19:54 PM 30.2603 -95.0753 273° West 65 75 6,900 194 Climbing Houston Center
Sat 07:20:34 PM 30.2617 -95.0833 281° West 66 76 7,000 295 Climbing Houston Center
Sat 07:20:55 PM 30.2644 -95.0964 284° West 70 81 7,200 290 Climbing Houston Center
Sat 07:21:36 PM 30.2669 -95.1067 286° West 73 84 7,300 265 Climbing Houston Center
Sat 07:22:03 PM 30.2689 -95.1225 278° West 73 84 7,500 295 Climbing Houston Center
Sat 07:22:37 PM 30.2719 -95.1339 287° West 73 84 7,600 295 Climbing Houston Center
Sat 07:23:04 PM 30.2733 -95.1461 277° West 71 82 7,800 290 Climbing Houston Center
Sat 07:23:39 PM 30.2747 -95.1564 279° West 73 84 7,900 197 Climbing Houston Center
Sat 07:24:05 PM 30.2772 -95.1675 285° West 72 83 8,000 194 Climbing Houston Center
Sat 07:24:41 PM 30.2794 -95.1803 281° West 73 84 8,100 98 Climbing Houston Center
Sat 07:25:06 PM 30.2797 -95.1936 271° West 85 98 8,100  Level Houston Center
Sat 07:25:43 PM 30.2814 -95.2069 278° West 83 96 8,100  Level Houston Center
Sat 07:26:13 PM 30.2828 -95.2272 275° West 89 102 8,100  Level Houston Center
Sat 07:26:44 PM 30.2833 -95.2358 274° West 86 99 8,100  Level Houston Center
Sat 07:27:14 PM 30.2789 -95.2542 254° West 78 90 8,100  Level Houston Center
Sat 07:27:46 PM 30.2775 -95.2622 259° West 87 100 8,100  Level Houston Center
Sat 07:28:16 PM 30.2750 -95.2789 260° West 84 97 8,100 -97 Level Houston Center
Sat 07:28:48 PM 30.2706 -95.2931 250° West 84 97 8,000  Descending Houston Center
Sat 07:29:17 PM 30.2669 -95.3067 253° West 80 92 8,100 98 Climbing Houston Center
Sat 07:29:49 PM 30.2658 -95.3167 263° West 81 93 8,100  Level Houston Center
Sat 07:30:12 PM 30.2625 -95.3264 248° West 78 90 8,100  Level Houston Center
Sat 07:30:51 PM 30.2606 -95.3406 261° West 80 92 8,100  Level Houston Center
Sat 07:31:13 PM 30.2586 -95.3536 260° West 77 89 8,100  Level Houston Center
Sat 07:31:53 PM 30.2581 -95.3669 267° West 80 92 8,100  Level Houston Center
Sat 07:32:14 PM 30.2550 -95.3806 255° West 86 99 8,100  Level Houston Center
Sat 07:32:55 PM 30.2531 -95.3931 260° West 81 93 8,100  Level Houston Center
Sat 07:33:15 PM 30.2508 -95.4053 258° West 82 94 8,100  Level Houston Center
Sat 07:33:56 PM 30.2492 -95.4192 262° West 81 93 8,100  Level Houston Center
Sat 07:34:10 PM 30.2492 -95.4322 270° West 85 98 8,100  Level Houston Center
Sat 07:34:58 PM 30.2461 -95.4472 257° West 86 99 8,100  Level Houston Center
Sat 07:35:11 PM 30.2431 -95.4594 254° West 86 99 8,100 -97 Level Houston Center
Sat 07:36:00 PM 30.2383 -95.4781 254° West 86 99 8,000 -98 Descending Houston Center
Sat 07:36:12 PM 30.2372 -95.4867 262° West 82 94 8,000  Level Houston Center
Sat 07:37:02 PM 30.2319 -95.5039 250° West 86 99 8,000  Level Houston Center
Sat 07:37:13 PM 30.2311 -95.5117 263° West 84 97 8,000  Level Houston Center
Sat 07:38:03 PM 30.2300 -95.5289 266° West 82 94 8,000  Level Houston Center
Sat 07:38:21 PM 30.2272 -95.5386 252° West 81 93 8,000 97 Level Houston Center
Sat 07:39:05 PM 30.2275 -95.5544 271° West 81 93 8,100 98 Climbing Houston Center
Sat 07:39:22 PM 30.2253 -95.5656 257° West 74 85 8,100  Level Houston Center
Sat 07:40:17 PM 30.2208 -95.5853 255° West 78 90 8,100  Level Houston Center
Sat 07:41:08 PM 30.2194 -95.6039 265° West 79 91 8,100  Level Houston Center
Sat 07:41:30 PM 30.2175 -95.6172 260° West 81 93 8,100  Level Houston Center
Sat 07:42:10 PM 30.2139 -95.6278 248° West 80 92 8,100  Level Houston Center
Sat 07:42:31 PM 30.2111 -95.6422 257° West 79 91 8,100  Level Houston Center
Sat 07:43:12 PM 30.2100 -95.6592 266° West 80 92 8,100  Level Houston Center
Sat 07:43:26 PM 30.2072 -95.6667 247° West 84 97 8,100  Level Houston Center
Sat 07:44:14 PM 30.2056 -95.6867 264° West 82 94 8,100  Level Houston Center
Sat 07:44:27 PM 30.2033 -95.6961 255° West 86 99 8,100  Level Houston Center
Sat 07:45:29 PM 30.1994 -95.7208 260° West 79 91 8,100  Level Houston Center
Sat 07:46:24 PM 30.1953 -95.7456 259° West 81 93 8,100  Level Houston Center
Sat 07:47:30 PM 30.1872 -95.7731 251° West 84 97 8,100  Level Houston Center
Sat 07:48:26 PM 30.1850 -95.7950 263° West 82 94 8,100  Level Houston Center
Sat 07:49:22 PM 30.1781 -95.8117 244° Southwest 81 93 8,100  Level Houston Center
Sat 07:49:32 PM 30.1747 -95.8228 251° West 78 90 8,100  Level Houston Center
Sat 07:50:23 PM 30.1728 -95.8425 263° West 82 94 8,100  Level Houston Center
Sat 07:50:34 PM 30.1708 -95.8497 253° West 83 96 8,100 83 Level Houston Center
Sat 07:51:35 PM 30.1686 -95.8717 263° West 77 89 8,200 53 Climbing Houston Center
Sat 07:52:27 PM 30.1633 -95.8922 253° West 79 91 8,200 -55 Level Houston Center
Sat 07:53:25 PM 30.1558 -95.9192 252° West 80 92 8,100 -49 Descending Houston Center
Sat 07:54:30 PM 30.1508 -95.9403 255° West 78 90 8,100 48 Level Houston Center
Sat 07:55:31 PM 30.1472 -95.9636 260° West 77 89 8,200 49 Climbing Houston Center
Sat 07:56:33 PM 30.1422 -95.9886 257° West 77 89 8,200  Level Houston Center
Sat 07:57:34 PM 30.1356 -96.0194 256° West 81 93 8,200  Level Houston Center
Sat 07:58:36 PM 30.1300 -96.0431 255° West 82 94 8,200  Level Houston Center
Sat 07:59:38 PM 30.1231 -96.0681 252° West 82 94 8,200  Level Houston Center
Sat 08:00:39 PM 30.1164 -96.0925 253° West 82 94 8,200  Level Houston Center
Sat 08:01:41 PM 30.1097 -96.1175 253° West 82 94 8,200  Level Houston Center
Sat 08:02:43 PM 30.1031 -96.1483 256° West 83 96 8,200  Level Houston Center
Sat 08:03:42 PM 30.0981 -96.1744 258° West 82 94 8,200  Level Houston Center
Sat 08:04:43 PM 30.0919 -96.2017 255° West 80 92 8,200  Level Houston Center
Sat 08:05:48 PM 30.0861 -96.2228 252° West 80 92 8,200  Level Houston Center
Sat 08:06:45 PM 30.0814 -96.2511 259° West 82 94 8,200  Level Houston Center
Sat 08:07:51 PM 30.0764 -96.2736 256° West 81 93 8,200  Level Houston Center
Sat 08:08:52 PM 30.0678 -96.2972 247° West 81 93 8,200 -51 Level Houston Center
Sat 08:09:48 PM 30.0628 -96.3278 259° West 81 93 8,100 -51 Descending Houston Center
Sat 08:10:49 PM 30.0586 -96.3525 259° West 81 93 8,100 -49 Level Houston Center
Sat 08:11:50 PM 30.0522 -96.3772 253° West 82 94 8,000  Descending Houston Center
Sat 08:12:57 PM 30.0461 -96.4044 255° West 75 86 8,100 47 Climbing Houston Center
Sat 08:13:59 PM 30.0417 -96.4267 257° West 73 84 8,100  Level Houston Center
Sat 08:15:00 PM 30.0331 -96.4494 246° West 71 82 8,100  Level Houston Center
Sat 08:16:01 PM 30.0286 -96.4714 257° West 74 85 8,100 48 Level Houston Center
Sat 08:17:05 PM 30.0264 -96.4911 263° West 74 85 8,200  Climbing Houston Center
Sat 08:18:03 PM 30.0200 -96.5183 255° West 71 82 8,100  Descending Houston Center
Sat 08:19:08 PM 30.0167 -96.5406 260° West 74 85 8,200  Climbing Houston Center
Sat 08:19:59 PM 30.0131 -96.5625 259° West 72 83 8,100  Descending Houston Center
Sat 08:20:09 PM 30.0111 -96.5631 194° South 73 84 8,200 -90 Climbing Houston Center
Sat 08:21:06 PM 30.0089 -96.5894 264° West 78 90 8,000 -106 Descending Houston Center
Sat 08:22:02 PM 30.0064 -96.6089 262° West 74 85 8,000 91 Level Houston Center
Sat 08:22:12 PM 30.0072 -96.6111 293° West 76 87 8,100  Climbing Houston Center
Sat 08:23:09 PM 30.0022 -96.6358 257° West 72 83 8,000 -51 Descending Houston Center
Sat 08:24:10 PM 29.9981 -96.6603 259° West 74 85 8,000 49 Level Houston Center
Sat 08:25:11 PM 29.9914 -96.6828 251° West 74 85 8,100 93 Climbing Houston Center
Sat 08:26:19 PM 29.9886 -96.7083 263° West 74 85 8,200 -55 Climbing Houston Center
Sat 08:27:01 PM 29.9864 -96.7242 261° West 75 86 8,000 -98 Descending Houston Center
Sat 08:27:20 PM 29.9878 -96.7317 282° West 75 86 8,100 98 Climbing Houston Center
Sat 08:28:02 PM 29.9822 -96.7489 250° West 73 84 8,100 97 Level Houston Center
Sat 08:28:22 PM 29.9806 -96.7536 248° West 74 85 8,200 73 Climbing Houston Center
Sat 08:29:24 PM 29.9764 -96.7761 258° West 74 85 8,200 -59 Level Houston Center
Sat 08:30:04 PM 29.9711 -96.7933 251° West 72 83 8,100  Descending Houston Center
Sat 08:30:25 PM 29.9706 -96.7978 262° West 74 85 8,200  Climbing Houston Center
Sat 08:31:11 PM 29.9647 -96.8181 252° West 75 86 8,100  Descending Houston Center
Sat 08:31:26 PM 29.9644 -96.8211 264° West 73 84 8,200 -107 Climbing Houston Center
Sat 08:32:07 PM 29.9561 -96.8408 244° Southwest 77 89 8,000 -97 Descending Houston Center
Sat 08:32:28 PM 29.9561 -96.8439 270° West 78 90 8,100 -197 Climbing Houston Center
Sat 08:33:08 PM 29.9497 -96.8656 251° West 83 96 7,800 -393 Descending Houston Center
Sat 08:33:29 PM 29.9492 -96.8769 267° West 85 98 7,700 -393 Descending Houston Center
Sat 08:34:09 PM 29.9458 -96.8972 259° West 93 107 7,400 -387 Descending Houston Center
Sat 08:34:31 PM 29.9464 -96.9067 274° West 90 104 7,300 -590 Descending Houston Center
Sat 08:35:10 PM 29.9444 -96.9311 265° West 99 114 6,800 -492 Descending Houston Center
Sat 08:35:32 PM 29.9456 -96.9386 280° West 98 113 6,800 -436 Level Houston Center
Sat 08:36:05 PM 29.9400 -96.9556 249° West 94 108 6,400 -492 Descending Houston Center
Sat 08:36:33 PM 29.9403 -96.9683 271° West 98 113 6,300 -393 Descending Houston Center
Sat 08:37:06 PM 29.9361 -96.9872 256° West 100 115 6,000 -194 Descending Houston Center
Sat 08:37:35 PM 29.9353 -96.9972 265° West 97 112 6,100  Climbing Houston Center
Sat 08:38:13 PM 29.9303 -97.0167 253° West 82 94 6,000  Descending Houston Center
Sat 08:38:36 PM 29.9311 -97.0244 277° West 91 105 6,100 197 Climbing Houston Center
Sat 08:39:14 PM 29.9278 -97.0411 257° West 79 91 6,200 65 Climbing Houston Center
Sat 08:40:09 PM 29.9236 -97.0656 259° West 81 93 6,200 -49 Level Houston Center
Sat 08:41:16 PM 29.9175 -97.0975 258° West 87 100 6,100 -47 Descending Houston Center
Sat 08:42:17 PM 29.9133 -97.1219 259° West 87 100 6,100 -77 Level Houston Center
Sat 08:45:09 PM 29.8978 -97.1972 272° West 85 98 5,800 -180 Descending Houston Center
Sat 08:46:10 PM 29.8900 -97.2264 253° West 89 102 5,400 -393 Descending Houston Center
Sat 08:47:11 PM 29.8844 -97.2550 257° West 91 105 5,000 -393 Descending Houston Center
Sat 08:48:12 PM 29.8769 -97.2839 253° West 91 105 4,600 -439 Descending Houston Center
Sat 08:49:14 PM 29.8692 -97.3125 253° West 92 106 4,100 -293 Descending Houston Center
Sat 08:50:15 PM 29.8575 -97.3436 247° West 92 106 4,000 -49 Descending Houston Center
Sat 08:51:16 PM 29.8478 -97.3683 246° West 88 101 4,000  Level Houston Center
Sat 08:52:17 PM 29.8417 -97.3967 256° West 88 101 4,000  Level Houston Center
Sat 08:53:18 PM 29.8389 -97.4278 264° West 94 108 4,000  Level Houston Center
Sat 08:54:20 PM 29.8314 -97.4542 252° West 94 108 4,000  Level Houston Center
Sat 08:55:21 PM 29.8217 -97.4778 245° Southwest 85 98 4,000  Level Houston Center
Sat 08:56:22 PM 29.8153 -97.5056 255° West 85 98 4,000 -49 Level Houston Center
Sat 08:57:23 PM 29.8100 -97.5356 259° West 91 105 3,900  Descending Houston Center
Sat 08:58:24 PM 29.8053 -97.5633 259° West 91 105 4,000 49 Climbing Houston Center
Sat 08:59:25 PM 29.8008 -97.5900 259° West 90 104 4,000  Level Houston Center
Sat 09:00:26 PM 29.7944 -97.6222 257° West 88 101 4,000  Level Houston Center
Sat 09:00:48 PM 29.7903 -97.6319 244° Southwest 90 104 4,000  Level Houston Center
Sat 09:01:06 PM 29.7889 -97.6394 258° West 88 101 4,000  Level Houston Center
Sat 09:01:27 PM 29.7886 -97.6497 268° West 88 101 4,000  Level Houston Center
Sat 09:02:07 PM 29.7856 -97.6689 260° West 89 102 4,000  Level Houston Center
Sat 09:02:29 PM 29.7853 -97.6778 268° West 88 101 4,000  Level Houston Center
Sat 09:03:08 PM 29.7842 -97.6978 266° West 91 105 4,000  Level Houston Center
Sat 09:03:30 PM 29.7850 -97.7072 276° West 89 102 4,000  Level Houston Center
Sat 09:04:08 PM 29.7783 -97.7253 247° West 92 106 4,000 -98 Level Houston Center
Sat 09:04:31 PM 29.7775 -97.7353 265° West 90 104 3,900  Descending Houston Center
Sat 09:05:09 PM 29.7725 -97.7525 252° West 86 99 4,000  Climbing Houston Center
Sat 09:05:32 PM 29.7744 -97.7631 282° West 89 102 3,900  Descending Houston Center
Sat 09:06:09 PM 29.7839 -97.7822 300° West 107 123 4,000 98 Climbing Houston Center
Sat 09:06:33 PM 29.7889 -97.7917 301° West 98 113 4,000  Level Houston Center
Sat 09:07:16 PM 29.7978 -97.8167 292° West 102 117 4,000  Level Houston Center
Sat 09:07:34 PM 29.8019 -97.8250 300° West 101 116 4,000  Level Houston Center
Sat 09:08:23 PM 29.8092 -97.8489 289° West 100 115 4,000  Level Houston Center
Sat 09:08:35 PM 29.8128 -97.8542 308° West 101 116 4,000  Level Houston Center
Sat 09:09:17 PM 29.8181 -97.8742 287° West 97 112 4,000  Level Houston Center
Sat 09:09:36 PM 29.8233 -97.8839 302° West 100 115 4,000  Level Houston Center
Sat 09:10:12 PM 29.8292 -97.9017 291° West 97 112 4,000  Level Houston Center
Sat 09:10:37 PM 29.8322 -97.9122 288° West 98 113 4,000  Level Houston Center
Sat 09:11:13 PM 29.8383 -97.9319 290° West 98 113 4,000  Level Houston Center
Sat 09:11:38 PM 29.8422 -97.9422 294° West 98 113 4,000  Level Houston Center
Sat 09:12:13 PM 29.8472 -97.9597 288° West 98 113 4,000 -197 Level Houston Center
Sat 09:12:39 PM 29.8550 -97.9731 304° West 98 113 3,800 -492 Descending Houston Center
Sat 09:13:14 PM 29.8608 -97.9917 290° West 110 127 3,500 -492 Descending Houston Center
Sat 09:13:40 PM 29.8669 -98.0064 296° West 108 124 3,300 -400 Descending Houston Center
Sat 09:14:14 PM 29.8725 -98.0264 288° West 115 132 3,100 -295 Descending Houston Center
Sat 09:14:41 PM 29.8786 -98.0406 296° West 112 129 3,000 -98 Descending Houston Center
Sat 09:15:15 PM 29.8839 -98.0589 288° West 113 130 3,000  Level Houston Center
Sat 09:15:42 PM 29.8875 -98.0733 286° West 111 128 3,000 -98 Level Houston Center
Sat 09:16:16 PM 29.8728 -98.0747 185° South 80 92 2,900 -100 Descending Houston Center
Sat 09:16:42 PM 29.8661 -98.0767 194° South 79 91 2,900  Level Houston Center
Sat 09:17:10 PM 29.8561 -98.0767 180° South 66 76 2,900 -98 Level Houston Center
Sat 09:17:43 PM 29.8450 -98.0775 184° South 73 84 2,800 -128 Descending Houston Center
Sat 09:18:44 PM 29.8294 -98.0781 182° South 73 84 2,700 -98 Descending Houston Center

Login

Don't have an account? Register now (free) for customized features, flight alerts, and more!